sensor_id;sensor_type;location;lat;lon;timestamp;P1;durP1;ratioP1;P2;durP2;ratioP2
14153;SDS011;7157;53.144;7.570;2023-03-31T00:07:52;18.08;;;2.65;;
14153;SDS011;7157;53.144;7.570;2023-03-31T00:17:57;16.92;;;3.10;;
14153;SDS011;7157;53.144;7.570;2023-03-31T00:28:00;9.80;;;2.15;;
14153;SDS011;7157;53.144;7.570;2023-03-31T00:38:05;13.43;;;2.45;;
14153;SDS011;7157;53.144;7.570;2023-03-31T00:48:10;12.85;;;2.20;;
14153;SDS011;7157;53.144;7.570;2023-03-31T00:58:19;15.63;;;2.23;;
14153;SDS011;7157;53.144;7.570;2023-03-31T01:08:28;16.27;;;1.95;;
14153;SDS011;7157;53.144;7.570;2023-03-31T01:18:33;20.77;;;2.30;;
14153;SDS011;7157;53.144;7.570;2023-03-31T01:28:37;10.73;;;1.85;;
14153;SDS011;7157;53.144;7.570;2023-03-31T01:49:23;14.73;;;2.08;;
14153;SDS011;7157;53.144;7.570;2023-03-31T01:59:33;12.40;;;2.08;;
14153;SDS011;7157;53.144;7.570;2023-03-31T02:09:41;10.55;;;2.03;;
14153;SDS011;7157;53.144;7.570;2023-03-31T02:19:48;15.25;;;2.40;;
14153;SDS011;7157;53.144;7.570;2023-03-31T02:29:55;20.15;;;3.25;;
14153;SDS011;7157;53.144;7.570;2023-03-31T02:40:00;19.23;;;2.88;;
14153;SDS011;7157;53.144;7.570;2023-03-31T02:50:11;17.15;;;3.03;;
14153;SDS011;7157;53.144;7.570;2023-03-31T03:00:15;14.00;;;3.15;;
14153;SDS011;7157;53.144;7.570;2023-03-31T03:10:27;12.13;;;2.78;;
14153;SDS011;7157;53.144;7.570;2023-03-31T03:20:37;12.50;;;2.72;;
14153;SDS011;7157;53.144;7.570;2023-03-31T03:30:42;13.68;;;3.03;;
14153;SDS011;7157;53.144;7.570;2023-03-31T03:40:46;13.50;;;2.38;;
14153;SDS011;7157;53.144;7.570;2023-03-31T03:50:51;10.77;;;2.30;;
14153;SDS011;7157;53.144;7.570;2023-03-31T04:00:55;9.98;;;2.53;;
14153;SDS011;7157;53.144;7.570;2023-03-31T04:10:59;11.38;;;2.10;;
14153;SDS011;7157;53.144;7.570;2023-03-31T04:21:02;8.40;;;2.00;;
14153;SDS011;7157;53.144;7.570;2023-03-31T04:31:07;14.27;;;2.50;;
14153;SDS011;7157;53.144;7.570;2023-03-31T04:41:15;8.30;;;1.98;;
14153;SDS011;7157;53.144;7.570;2023-03-31T04:51:19;12.20;;;1.90;;
14153;SDS011;7157;53.144;7.570;2023-03-31T05:01:22;8.30;;;1.83;;
14153;SDS011;7157;53.144;7.570;2023-03-31T05:11:26;8.00;;;1.83;;
14153;SDS011;7157;53.144;7.570;2023-03-31T05:21:30;10.43;;;2.67;;
14153;SDS011;7157;53.144;7.570;2023-03-31T05:31:34;11.02;;;2.22;;
14153;SDS011;7157;53.144;7.570;2023-03-31T05:41:36;5.50;;;2.40;;
14153;SDS011;7157;53.144;7.570;2023-03-31T05:51:40;7.32;;;2.60;;
14153;SDS011;7157;53.144;7.570;2023-03-31T06:01:43;6.25;;;2.78;;
14153;SDS011;7157;53.144;7.570;2023-03-31T06:11:47;8.18;;;3.20;;
14153;SDS011;7157;53.144;7.570;2023-03-31T06:21:50;9.40;;;3.28;;
14153;SDS011;7157;53.144;7.570;2023-03-31T06:31:55;7.07;;;3.45;;
14153;SDS011;7157;53.144;7.570;2023-03-31T06:41:57;7.78;;;3.17;;
14153;SDS011;7157;53.144;7.570;2023-03-31T06:52:01;9.48;;;4.00;;
14153;SDS011;7157;53.144;7.570;2023-03-31T07:02:04;10.63;;;3.92;;
14153;SDS011;7157;53.144;7.570;2023-03-31T07:12:09;10.52;;;3.78;;
14153;SDS011;7157;53.144;7.570;2023-03-31T07:22:14;9.93;;;3.50;;
14153;SDS011;7157;53.144;7.570;2023-03-31T07:32:18;7.70;;;2.97;;
14153;SDS011;7157;53.144;7.570;2023-03-31T07:42:22;8.43;;;3.88;;
14153;SDS011;7157;53.144;7.570;2023-03-31T07:52:26;6.63;;;3.97;;
14153;SDS011;7157;53.144;7.570;2023-03-31T08:02:29;13.43;;;5.63;;
14153;SDS011;7157;53.144;7.570;2023-03-31T08:12:33;15.35;;;6.63;;
14153;SDS011;7157;53.144;7.570;2023-03-31T08:22:36;14.10;;;6.85;;
14153;SDS011;7157;53.144;7.570;2023-03-31T08:32:40;12.40;;;6.72;;
14153;SDS011;7157;53.144;7.570;2023-03-31T08:42:43;18.35;;;8.50;;
14153;SDS011;7157;53.144;7.570;2023-03-31T08:52:51;18.15;;;9.13;;
14153;SDS011;7157;53.144;7.570;2023-03-31T09:02:58;17.67;;;8.67;;
14153;SDS011;7157;53.144;7.570;2023-03-31T09:13:14;22.60;;;9.73;;
14153;SDS011;7157;53.144;7.570;2023-03-31T09:23:25;19.73;;;9.00;;
14153;SDS011;7157;53.144;7.570;2023-03-31T09:33:33;16.98;;;8.00;;
14153;SDS011;7157;53.144;7.570;2023-03-31T09:43:36;10.48;;;6.15;;
14153;SDS011;7157;53.144;7.570;2023-03-31T09:53:44;14.88;;;7.72;;
14153;SDS011;7157;53.144;7.570;2023-03-31T10:03:50;11.90;;;6.28;;
14153;SDS011;7157;53.144;7.570;2023-03-31T10:14:00;10.55;;;5.57;;
14153;SDS011;7157;53.144;7.570;2023-03-31T10:34:12;10.50;;;4.00;;
14153;SDS011;7157;53.144;7.570;2023-03-31T10:44:30;12.27;;;4.00;;
14153;SDS011;7157;53.144;7.570;2023-03-31T10:54:36;10.55;;;4.25;;
14153;SDS011;7157;53.144;7.570;2023-03-31T11:04:43;4.78;;;2.10;;
14153;SDS011;7157;53.144;7.570;2023-03-31T11:14:59;5.60;;;2.42;;
14153;SDS011;7157;53.144;7.570;2023-03-31T11:35:43;4.78;;;2.25;;
14153;SDS011;7157;53.144;7.570;2023-03-31T11:45:57;4.70;;;1.55;;
14153;SDS011;7157;53.144;7.570;2023-03-31T11:56:06;4.20;;;1.55;;
14153;SDS011;7157;53.144;7.570;2023-03-31T12:06:11;6.43;;;1.60;;
14153;SDS011;7157;53.144;7.570;2023-03-31T12:16:21;5.97;;;1.63;;
14153;SDS011;7157;53.144;7.570;2023-03-31T12:26:30;5.13;;;1.50;;
14153;SDS011;7157;53.144;7.570;2023-03-31T12:36:44;5.57;;;1.30;;
14153;SDS011;7157;53.144;7.570;2023-03-31T12:57:44;7.63;;;1.20;;
14153;SDS011;7157;53.144;7.570;2023-03-31T13:07:47;3.90;;;1.55;;
14153;SDS011;7157;53.144;7.570;2023-03-31T13:17:55;4.35;;;1.48;;
14153;SDS011;7157;53.144;7.570;2023-03-31T13:28:07;11.63;;;1.70;;
14153;SDS011;7157;53.144;7.570;2023-03-31T13:38:17;7.50;;;1.48;;
14153;SDS011;7157;53.144;7.570;2023-03-31T13:48:36;5.70;;;1.67;;
14153;SDS011;7157;53.144;7.570;2023-03-31T13:59:00;5.55;;;1.33;;
14153;SDS011;7157;53.144;7.570;2023-03-31T14:09:15;4.53;;;1.37;;
14153;SDS011;7157;53.144;7.570;2023-03-31T14:19:32;8.00;;;1.90;;
14153;SDS011;7157;53.144;7.570;2023-03-31T14:29:45;7.53;;;1.95;;
14153;SDS011;7157;53.144;7.570;2023-03-31T14:39:54;11.65;;;1.67;;
14153;SDS011;7157;53.144;7.570;2023-03-31T14:49:59;11.80;;;2.33;;
14153;SDS011;7157;53.144;7.570;2023-03-31T15:00:10;8.32;;;2.22;;
14153;SDS011;7157;53.144;7.570;2023-03-31T15:10:17;11.10;;;2.80;;
14153;SDS011;7157;53.144;7.570;2023-03-31T15:20:28;8.20;;;2.85;;
14153;SDS011;7157;53.144;7.570;2023-03-31T15:30:35;10.32;;;2.67;;
14153;SDS011;7157;53.144;7.570;2023-03-31T15:40:39;7.07;;;2.63;;
14153;SDS011;7157;53.144;7.570;2023-03-31T15:50:44;3.95;;;0.88;;
14153;SDS011;7157;53.144;7.570;2023-03-31T16:00:48;4.22;;;0.75;;
14153;SDS011;7157;53.144;7.570;2023-03-31T16:10:54;3.67;;;1.50;;
14153;SDS011;7157;53.144;7.570;2023-03-31T16:21:03;3.38;;;1.15;;
14153;SDS011;7157;53.144;7.570;2023-03-31T16:31:25;9.68;;;3.80;;
14153;SDS011;7157;53.144;7.570;2023-03-31T16:41:32;3.50;;;1.65;;
14153;SDS011;7157;53.144;7.570;2023-03-31T16:51:36;5.53;;;1.40;;
14153;SDS011;7157;53.144;7.570;2023-03-31T17:01:41;9.18;;;4.35;;
14153;SDS011;7157;53.144;7.570;2023-03-31T17:11:43;8.82;;;3.78;;
14153;SDS011;7157;53.144;7.570;2023-03-31T17:21:47;9.50;;;2.40;;
14153;SDS011;7157;53.144;7.570;2023-03-31T17:31:51;7.85;;;3.00;;
14153;SDS011;7157;53.144;7.570;2023-03-31T17:41:55;6.07;;;3.00;;
14153;SDS011;7157;53.144;7.570;2023-03-31T17:51:58;9.82;;;4.70;;
14153;SDS011;7157;53.144;7.570;2023-03-31T18:02:03;14.10;;;4.03;;
14153;SDS011;7157;53.144;7.570;2023-03-31T18:12:05;11.27;;;4.63;;
14153;SDS011;7157;53.144;7.570;2023-03-31T18:22:09;19.70;;;11.00;;
14153;SDS011;7157;53.144;7.570;2023-03-31T18:32:12;8.82;;;2.83;;
14153;SDS011;7157;53.144;7.570;2023-03-31T18:42:17;12.60;;;3.33;;
14153;SDS011;7157;53.144;7.570;2023-03-31T18:52:25;9.80;;;2.22;;
14153;SDS011;7157;53.144;7.570;2023-03-31T19:02:29;10.55;;;2.72;;
14153;SDS011;7157;53.144;7.570;2023-03-31T19:12:32;13.38;;;4.50;;
14153;SDS011;7157;53.144;7.570;2023-03-31T19:22:36;5.38;;;1.90;;
14153;SDS011;7157;53.144;7.570;2023-03-31T19:32:38;5.78;;;1.35;;
14153;SDS011;7157;53.144;7.570;2023-03-31T19:42:43;9.07;;;2.28;;
14153;SDS011;7157;53.144;7.570;2023-03-31T19:52:45;9.00;;;1.70;;
14153;SDS011;7157;53.144;7.570;2023-03-31T20:02:51;12.68;;;2.20;;
14153;SDS011;7157;53.144;7.570;2023-03-31T20:12:54;7.80;;;1.83;;
14153;SDS011;7157;53.144;7.570;2023-03-31T20:22:58;8.05;;;2.08;;
14153;SDS011;7157;53.144;7.570;2023-03-31T20:33:01;6.57;;;1.83;;
14153;SDS011;7157;53.144;7.570;2023-03-31T20:43:05;8.07;;;2.15;;
14153;SDS011;7157;53.144;7.570;2023-03-31T20:53:07;8.52;;;2.38;;
14153;SDS011;7157;53.144;7.570;2023-03-31T21:03:11;8.05;;;2.20;;
14153;SDS011;7157;53.144;7.570;2023-03-31T21:13:14;7.05;;;2.60;;
14153;SDS011;7157;53.144;7.570;2023-03-31T21:23:19;10.52;;;2.40;;
14153;SDS011;7157;53.144;7.570;2023-03-31T21:33:23;10.35;;;2.90;;
14153;SDS011;7157;53.144;7.570;2023-03-31T21:43:27;6.22;;;2.40;;
14153;SDS011;7157;53.144;7.570;2023-03-31T21:53:31;9.13;;;2.58;;
14153;SDS011;7157;53.144;7.570;2023-03-31T22:03:35;7.07;;;2.40;;
14153;SDS011;7157;53.144;7.570;2023-03-31T22:13:38;7.15;;;2.97;;
14153;SDS011;7157;53.144;7.570;2023-03-31T22:23:43;8.40;;;2.97;;
14153;SDS011;7157;53.144;7.570;2023-03-31T22:33:46;7.72;;;3.38;;
14153;SDS011;7157;53.144;7.570;2023-03-31T22:43:50;10.55;;;4.05;;
14153;SDS011;7157;53.144;7.570;2023-03-31T22:53:53;12.48;;;4.30;;
14153;SDS011;7157;53.144;7.570;2023-03-31T23:03:57;11.18;;;4.28;;
14153;SDS011;7157;53.144;7.570;2023-03-31T23:14:01;8.27;;;4.45;;
14153;SDS011;7157;53.144;7.570;2023-03-31T23:24:06;8.25;;;4.10;;
14153;SDS011;7157;53.144;7.570;2023-03-31T23:34:08;11.38;;;5.18;;
14153;SDS011;7157;53.144;7.570;2023-03-31T23:44:12;10.02;;;4.90;;
14153;SDS011;7157;53.144;7.570;2023-03-31T23:54:15;10.25;;;5.45;;
